createdAt,value
2023-03-28T00:00:39.627Z,28.96
2023-03-28T00:01:39.761Z,27.04
2023-03-28T00:02:40.738Z,27.22
2023-03-28T00:03:40.915Z,28.03
2023-03-28T00:04:39.699Z,29.65
2023-03-28T00:05:40.757Z,31.05
2023-03-28T00:06:39.732Z,29.85
2023-03-28T00:07:40.747Z,27.56
2023-03-28T00:08:39.752Z,29.75
2023-03-28T00:09:40.768Z,28.29
2023-03-28T00:10:40.793Z,26.74
2023-03-28T00:11:39.793Z,28.90
2023-03-28T00:12:40.797Z,28.11
2023-03-28T00:13:40.824Z,28.17
2023-03-28T00:14:40.846Z,28.74
2023-03-28T00:15:40.886Z,29.53
2023-03-28T00:16:40.881Z,27.74
2023-03-28T00:17:40.987Z,28.40
2023-03-28T00:18:40.926Z,29.56
2023-03-28T00:19:40.955Z,29.78
2023-03-28T00:20:40.957Z,28.44
2023-03-28T00:21:39.976Z,28.78
2023-03-28T00:22:41.010Z,27.93
2023-03-28T00:23:41.012Z,27.34
2023-03-28T00:24:41.061Z,27.61
2023-03-28T00:25:41.063Z,28.11
2023-03-28T00:26:41.082Z,29.66
2023-03-28T00:27:40.076Z,29.34
2023-03-28T00:28:41.095Z,28.38
2023-03-28T00:29:41.136Z,27.79
2023-03-28T00:30:40.136Z,28.74
2023-03-28T00:31:40.182Z,29.45
2023-03-28T00:32:41.240Z,29.02
2023-03-28T00:33:40.213Z,27.63
2023-03-28T00:34:41.222Z,29.24
2023-03-28T00:35:41.259Z,28.26
2023-03-28T00:36:40.232Z,28.52
2023-03-28T00:37:41.263Z,28.30
2023-03-28T00:38:41.275Z,30.05
2023-03-28T00:39:41.293Z,30.36
2023-03-28T00:40:41.299Z,29.10
2023-03-28T00:41:41.306Z,30.03
2023-03-28T00:42:40.326Z,28.54
2023-03-28T00:43:41.340Z,29.49
2023-03-28T00:44:41.375Z,29.19
2023-03-28T00:45:41.386Z,29.86
2023-03-28T00:46:41.561Z,30.93
2023-03-28T00:47:40.487Z,30.00
2023-03-28T00:48:41.494Z,31.54
2023-03-28T00:49:40.549Z,30.51
2023-03-28T00:50:41.581Z,28.79
2023-03-28T00:51:41.600Z,31.59
2023-03-28T00:52:41.642Z,29.31
2023-03-28T00:53:41.662Z,31.33
2023-03-28T00:54:40.705Z,29.79
2023-03-28T00:55:40.766Z,29.36
2023-03-28T00:56:41.804Z,29.31
2023-03-28T00:57:41.850Z,30.42
2023-03-28T00:58:41.864Z,30.19
2023-03-28T00:59:41.906Z,28.90
2023-03-28T01:00:41.922Z,29.90
2023-03-28T01:01:41.995Z,30.08
2023-03-28T01:02:41.005Z,28.27
2023-03-28T01:03:42.088Z,27.45
2023-03-28T01:04:42.016Z,28.95
2023-03-28T01:05:42.080Z,29.17
2023-03-28T01:06:42.044Z,28.57
2023-03-28T01:07:42.073Z,25.10
2023-03-28T01:08:42.102Z,26.61
2023-03-28T01:09:42.106Z,25.00
2023-03-28T01:10:42.103Z,26.51
2023-03-28T01:11:42.090Z,25.22
2023-03-28T01:12:42.096Z,27.59
2023-03-28T01:13:42.150Z,25.29
2023-03-28T01:14:42.098Z,28.95
2023-03-28T01:15:42.117Z,28.26
2023-03-28T01:16:41.160Z,27.43
2023-03-28T01:17:42.144Z,27.28
2023-03-28T01:18:41.140Z,26.38
2023-03-28T01:19:42.155Z,26.48
2023-03-28T01:20:42.201Z,28.00
2023-03-28T01:21:42.224Z,27.19
2023-03-28T01:22:42.263Z,26.94
2023-03-28T01:23:42.235Z,27.12
2023-03-28T01:24:42.231Z,27.56
2023-03-28T01:25:41.236Z,27.40
2023-03-28T01:26:41.216Z,25.18
2023-03-28T01:27:42.219Z,22.70
2023-03-28T01:28:42.205Z,26.28
2023-03-28T01:29:41.206Z,26.57
2023-03-28T01:30:42.200Z,26.74
2023-03-28T01:31:42.267Z,26.23
2023-03-28T01:32:42.202Z,25.99
2023-03-28T01:33:42.173Z,26.73
2023-03-28T01:34:42.153Z,28.30
2023-03-28T01:35:42.258Z,26.11
2023-03-28T01:36:41.141Z,26.79
2023-03-28T01:37:42.174Z,26.04
2023-03-28T01:38:42.148Z,30.32
2023-03-28T01:39:41.139Z,28.27
2023-03-28T01:40:41.122Z,28.33
2023-03-28T01:41:41.124Z,27.78
2023-03-28T01:42:41.118Z,28.57
2023-03-28T01:43:41.108Z,27.21
2023-03-28T01:44:42.095Z,29.05
2023-03-28T01:45:42.100Z,27.92
2023-03-28T01:46:42.111Z,27.29
2023-03-28T01:47:41.114Z,27.26
2023-03-28T01:48:41.076Z,28.32
2023-03-28T01:49:42.080Z,26.56
2023-03-28T01:50:42.095Z,29.28
2023-03-28T01:51:41.113Z,27.68
2023-03-28T01:52:42.142Z,26.05
2023-03-28T01:53:41.184Z,28.07
2023-03-28T01:54:42.185Z,27.21
2023-03-28T01:55:42.769Z,27.94
2023-03-28T01:56:42.339Z,29.80
2023-03-28T01:57:42.286Z,27.83
2023-03-28T01:58:42.283Z,25.78
2023-03-28T01:59:42.309Z,26.25
2023-03-28T02:00:42.344Z,27.13
2023-03-28T02:01:42.416Z,32.38
2023-03-28T02:02:42.587Z,29.94
2023-03-28T02:03:42.426Z,29.58
2023-03-28T02:04:42.445Z,27.41
2023-03-28T02:05:42.490Z,27.50
2023-03-28T02:06:42.493Z,30.85
2023-03-28T02:07:42.534Z,29.57
2023-03-28T02:08:42.528Z,30.97
2023-03-28T02:09:42.580Z,27.25
2023-03-28T02:10:42.592Z,31.94
2023-03-28T02:11:42.595Z,30.41
2023-03-28T02:12:42.610Z,28.21
2023-03-28T02:13:42.616Z,27.21
2023-03-28T02:14:42.643Z,28.52
2023-03-28T02:15:42.659Z,28.09
2023-03-28T02:16:41.750Z,30.14
2023-03-28T02:17:42.699Z,31.76
2023-03-28T02:18:41.697Z,29.76
2023-03-28T02:19:42.688Z,29.67
2023-03-28T02:20:42.679Z,28.90
2023-03-28T02:21:42.674Z,27.24
2023-03-28T02:22:41.660Z,26.56
2023-03-28T02:23:42.672Z,27.96
2023-03-28T02:24:41.671Z,30.32
2023-03-28T02:25:42.684Z,29.74
2023-03-28T02:26:42.654Z,26.98
2023-03-28T02:27:42.644Z,25.97
2023-03-28T02:28:42.654Z,29.17
2023-03-28T02:29:42.683Z,29.87
2023-03-28T02:30:42.658Z,30.31
2023-03-28T02:31:42.730Z,28.11
2023-03-28T02:32:42.696Z,27.96
2023-03-28T02:33:42.662Z,27.50
2023-03-28T02:34:41.676Z,26.89
2023-03-28T02:35:42.726Z,28.54
2023-03-28T02:36:42.707Z,28.37
2023-03-28T02:37:42.710Z,25.99
2023-03-28T02:38:42.692Z,27.66
2023-03-28T02:39:42.673Z,27.38
2023-03-28T02:40:42.694Z,27.64
2023-03-28T02:41:42.689Z,28.54
2023-03-28T02:42:42.704Z,28.88
2023-03-28T02:43:41.778Z,28.40
2023-03-28T02:44:42.771Z,27.59
2023-03-28T02:45:41.865Z,30.69
2023-03-28T02:46:42.854Z,27.76
2023-03-28T02:47:42.954Z,27.97
2023-03-28T02:48:42.973Z,29.04
2023-03-28T02:49:50.047Z,30.40
2023-03-28T02:50:43.016Z,30.54
2023-03-28T02:51:43.006Z,30.69
2023-03-28T02:52:42.000Z,30.12
2023-03-28T02:53:42.999Z,29.13
2023-03-28T02:54:43.002Z,30.40
2023-03-28T02:55:42.985Z,28.87
2023-03-28T02:56:43.012Z,28.03
2023-03-28T02:57:42.988Z,27.25
2023-03-28T02:58:42.958Z,26.88
2023-03-28T02:59:42.955Z,26.78
2023-03-28T03:00:42.956Z,25.98
2023-03-28T03:01:41.956Z,28.33
2023-03-28T03:02:43.096Z,27.15
2023-03-28T03:03:42.971Z,25.99
2023-03-28T03:04:42.928Z,27.03
2023-03-28T03:05:42.923Z,26.48
2023-03-28T03:06:42.904Z,25.94
2023-03-28T03:07:42.906Z,26.60
2023-03-28T03:08:42.911Z,27.69
2023-03-28T03:09:42.553Z,25.73
2023-03-28T03:10:41.886Z,26.53
2023-03-28T03:11:42.884Z,27.07
2023-03-28T03:12:41.879Z,28.85
2023-03-28T03:13:42.901Z,27.10
2023-03-28T03:14:42.062Z,29.25
2023-03-28T03:15:43.080Z,26.74
2023-03-28T03:16:43.072Z,27.62
2023-03-28T03:17:43.157Z,28.03
2023-03-28T03:18:43.199Z,28.13
2023-03-28T03:19:43.420Z,28.09
2023-03-28T03:20:43.324Z,25.33
2023-03-28T03:21:43.377Z,27.64
2023-03-28T03:22:43.456Z,27.66
2023-03-28T03:23:43.496Z,29.47
2023-03-28T03:24:43.564Z,27.43
2023-03-28T03:25:43.640Z,28.60
2023-03-28T03:26:43.686Z,27.82
2023-03-28T03:27:43.747Z,28.21
2023-03-28T03:28:43.800Z,29.45
2023-03-28T03:29:43.896Z,30.57
2023-03-28T03:30:43.971Z,30.13
2023-03-28T03:31:44.038Z,29.05
2023-03-28T03:32:44.172Z,29.64
2023-03-28T03:33:43.133Z,30.33
2023-03-28T03:34:43.189Z,29.10
2023-03-28T03:35:44.291Z,29.69
2023-03-28T03:36:44.317Z,30.01
2023-03-28T03:37:44.400Z,30.18
2023-03-28T03:38:44.438Z,30.78
2023-03-28T03:39:44.504Z,30.23
2023-03-28T03:40:44.582Z,27.73
2023-03-28T03:41:44.622Z,27.52
2023-03-28T03:42:43.689Z,29.98
2023-03-28T03:43:47.053Z,26.94
2023-03-28T03:44:44.748Z,30.50
2023-03-28T03:45:43.770Z,29.12
2023-03-28T03:46:44.846Z,29.38
2023-03-28T03:47:44.761Z,27.49
2023-03-28T03:48:49.256Z,30.14
2023-03-28T03:49:44.721Z,30.22
2023-03-28T03:50:44.695Z,30.51
2023-03-28T03:51:44.706Z,29.80
2023-03-28T03:52:44.696Z,30.41
2023-03-28T03:53:44.706Z,31.23
2023-03-28T03:54:44.686Z,29.46
2023-03-28T03:55:44.669Z,28.37
2023-03-28T03:56:44.697Z,29.79
2023-03-28T03:57:44.661Z,27.27
2023-03-28T03:58:43.651Z,28.50
2023-03-28T03:59:43.636Z,28.15
2023-03-28T04:00:43.634Z,27.09
2023-03-28T04:01:44.678Z,28.18
2023-03-28T04:02:44.629Z,27.14
2023-03-28T04:03:44.643Z,28.98
2023-03-28T04:04:44.599Z,29.57
2023-03-28T04:05:44.600Z,25.57
2023-03-28T04:06:44.612Z,28.57
2023-03-28T04:07:43.595Z,26.11
2023-03-28T04:08:43.571Z,26.76
2023-03-28T04:09:44.579Z,29.57
2023-03-28T04:10:45.056Z,31.32
2023-03-28T04:11:44.558Z,32.43
2023-03-28T04:12:43.567Z,33.06
2023-03-28T04:13:44.544Z,30.93
2023-03-28T04:14:44.540Z,34.11
2023-03-28T04:15:44.559Z,28.51
2023-03-28T04:16:44.570Z,29.01
2023-03-28T04:17:44.610Z,29.84
2023-03-28T04:18:43.531Z,31.07
2023-03-28T04:19:44.510Z,29.72
2023-03-28T04:20:44.494Z,30.21
2023-03-28T04:21:44.499Z,29.81
2023-03-28T04:22:45.281Z,29.76
2023-03-28T04:23:44.743Z,28.85
2023-03-28T04:24:44.799Z,27.48
2023-03-28T04:25:44.874Z,27.88
2023-03-28T04:26:44.911Z,25.00
2023-03-28T04:27:44.965Z,28.64
2023-03-28T04:28:44.999Z,27.87
2023-03-28T04:29:44.046Z,27.26
2023-03-28T04:30:45.145Z,28.05
2023-03-28T04:31:45.161Z,26.41
2023-03-28T04:32:45.251Z,24.74
2023-03-28T04:33:44.225Z,29.90
2023-03-28T04:34:45.229Z,31.57
2023-03-28T04:35:45.324Z,31.27
2023-03-28T04:36:45.350Z,29.66
2023-03-28T04:37:45.382Z,30.55
2023-03-28T04:38:44.424Z,31.76
2023-03-28T04:39:45.458Z,31.25
2023-03-28T04:40:45.489Z,27.56
2023-03-28T04:41:45.508Z,28.55
2023-03-28T04:42:45.534Z,33.83
2023-03-28T04:43:45.506Z,29.12
2023-03-28T04:44:45.489Z,33.37
2023-03-28T04:45:45.547Z,31.58
2023-03-28T04:46:45.524Z,30.15
2023-03-28T04:47:45.532Z,30.38
2023-03-28T04:48:44.538Z,29.88
2023-03-28T04:49:44.560Z,31.48
2023-03-28T04:50:45.541Z,30.08
2023-03-28T04:51:45.579Z,30.09
2023-03-28T04:52:45.544Z,27.88
2023-03-28T04:53:45.574Z,28.59
2023-03-28T04:54:45.612Z,26.61
2023-03-28T04:55:44.622Z,28.69
2023-03-28T04:56:45.739Z,29.83
2023-03-28T04:57:45.653Z,29.31
2023-03-28T04:58:44.684Z,28.77
2023-03-28T04:59:45.704Z,30.25
2023-03-28T05:00:45.746Z,27.25
2023-03-28T05:01:45.815Z,26.22
2023-03-28T05:02:45.926Z,27.40
2023-03-28T05:03:45.992Z,30.33
2023-03-28T05:04:45.975Z,28.90
2023-03-28T05:05:46.011Z,26.92
2023-03-28T05:06:46.052Z,28.83
2023-03-28T05:07:46.109Z,28.31
2023-03-28T05:08:46.120Z,27.46
2023-03-28T05:11:45.287Z,28.42
2023-03-28T05:12:46.305Z,27.41
2023-03-28T05:13:46.350Z,29.74
2023-03-28T05:14:46.428Z,27.40
2023-03-28T05:15:46.487Z,26.92
2023-03-28T05:16:46.611Z,27.07
2023-03-28T05:17:46.650Z,25.00
2023-03-28T05:18:46.661Z,29.15
2023-03-28T05:19:46.719Z,28.10
2023-03-28T05:20:46.735Z,27.75
2023-03-28T05:21:46.847Z,27.24
2023-03-28T05:24:45.859Z,25.41
2023-03-28T05:25:46.901Z,28.88
2023-03-28T05:26:46.946Z,28.54
2023-03-28T05:27:46.966Z,27.54
2023-03-28T05:28:47.036Z,29.76
2023-03-28T05:29:47.024Z,26.89
2023-03-28T05:30:47.038Z,29.62
2023-03-28T05:31:47.181Z,29.06
2023-03-28T05:32:47.138Z,28.13
2023-03-28T05:33:47.158Z,31.75
2023-03-28T05:34:46.216Z,29.81
2023-03-28T05:35:47.342Z,34.09
2023-03-28T05:36:47.330Z,35.91
2023-03-28T05:37:47.150Z,36.51
2023-03-28T05:38:47.414Z,38.20
2023-03-28T05:39:47.467Z,39.90
2023-03-28T05:40:47.609Z,42.77
2023-03-28T05:41:47.571Z,41.39
2023-03-28T05:45:46.772Z,39.42
2023-03-28T05:46:47.832Z,37.66
2023-03-28T05:48:49.513Z,37.27
2023-03-28T05:49:47.853Z,39.79
2023-03-28T05:50:47.856Z,43.75
2023-03-28T05:52:46.839Z,41.06
2023-03-28T05:53:47.877Z,47.63
2023-03-28T05:54:50.372Z,48.14
2023-03-28T05:55:47.835Z,48.36
2023-03-28T05:56:46.884Z,51.35
2023-03-28T05:57:48.116Z,55.52
2023-03-28T05:59:46.802Z,48.03
2023-03-28T06:00:46.854Z,65.33
2023-03-28T06:01:47.821Z,90.26
2023-03-28T06:02:48.067Z,86.25
2023-03-28T06:03:46.823Z,103.33
2023-03-28T06:04:47.862Z,111.31
2023-03-28T06:05:47.804Z,113.52
2023-03-28T06:08:46.725Z,124.48
2023-03-28T06:09:46.740Z,126.64
2023-03-28T06:10:46.752Z,136.37
2023-03-28T06:11:47.694Z,138.58
2023-03-28T06:12:46.710Z,159.76
2023-03-28T06:16:46.720Z,160.24
2023-03-28T06:17:47.760Z,160.84
2023-03-28T06:18:47.681Z,174.53
2023-03-28T06:19:47.733Z,184.22
2023-03-28T06:20:47.638Z,185.15
2023-03-28T06:23:46.620Z,186.68
2023-03-28T06:24:47.596Z,179.40
2023-03-28T06:25:47.647Z,182.56
2023-03-28T06:28:46.677Z,63.48
2023-03-28T06:29:46.718Z,97.22
2023-03-28T06:30:47.749Z,131.54
2023-03-28T06:31:47.877Z,151.17
2023-03-28T06:32:46.858Z,152.47
2023-03-28T06:33:47.832Z,157.13
2023-03-28T06:34:47.838Z,153.00
2023-03-28T06:35:47.906Z,151.66
2023-03-28T06:36:46.855Z,163.82
2023-03-28T06:37:47.845Z,164.15
2023-03-28T06:38:47.905Z,163.95
2023-03-28T06:39:47.935Z,167.56
2023-03-28T06:42:47.125Z,185.75
2023-03-28T06:43:48.166Z,191.39
2023-03-28T06:44:47.202Z,184.98
2023-03-28T06:45:48.231Z,185.71
2023-03-28T06:46:48.373Z,198.62
2023-03-28T06:47:48.371Z,223.12
2023-03-28T06:48:48.380Z,225.97
2023-03-28T06:49:48.415Z,226.21
2023-03-28T06:50:48.481Z,219.41
2023-03-28T06:52:47.537Z,145.79
2023-03-28T06:53:48.541Z,80.86
2023-03-28T06:54:48.739Z,60.30
2023-03-28T06:55:48.645Z,82.46
2023-03-28T06:56:48.751Z,83.14
2023-03-28T06:57:49.120Z,89.60
2023-03-28T06:59:47.802Z,88.60
2023-03-28T07:00:47.837Z,103.24
2023-03-28T07:01:48.930Z,103.12
2023-03-28T07:02:48.928Z,106.62
2023-03-28T07:04:47.933Z,121.08
2023-03-28T07:05:48.994Z,127.03
2023-03-28T07:06:49.030Z,133.39
2023-03-28T07:10:48.134Z,142.31
2023-03-28T07:11:48.147Z,146.06
2023-03-28T07:12:48.155Z,149.37
2023-03-28T07:13:49.175Z,148.46
2023-03-28T07:17:48.196Z,146.69
2023-03-28T07:18:48.212Z,149.98
2023-03-28T07:19:48.262Z,147.97
2023-03-28T07:20:54.843Z,148.13
2023-03-28T07:21:49.312Z,148.37
2023-03-28T07:22:49.310Z,148.99
2023-03-28T07:24:48.286Z,147.35
2023-03-28T07:25:49.282Z,147.05
2023-03-28T07:26:49.266Z,149.69
2023-03-28T07:27:49.273Z,145.22
2023-03-28T07:29:48.281Z,147.68
2023-03-28T07:30:48.227Z,149.26
2023-03-28T07:31:48.277Z,145.35
2023-03-28T07:32:56.701Z,143.93
2023-03-28T07:34:48.218Z,145.29
2023-03-28T07:35:48.248Z,145.58
2023-03-28T07:36:49.202Z,146.38
2023-03-28T07:37:49.222Z,142.64
2023-03-28T07:39:48.192Z,145.24
2023-03-28T07:40:49.187Z,146.84
2023-03-28T07:41:49.215Z,144.39
2023-03-28T07:42:49.177Z,141.92
2023-03-28T07:43:49.236Z,140.58
2023-03-28T07:44:49.143Z,140.05
2023-03-28T07:45:48.196Z,141.69
2023-03-28T07:46:49.142Z,141.92
2023-03-28T07:47:49.190Z,136.18
2023-03-28T07:48:49.480Z,126.93
2023-03-28T07:49:49.121Z,120.51
2023-03-28T07:50:49.112Z,61.75
2023-03-28T07:51:48.112Z,2.36
2023-03-28T07:52:49.099Z,0.00
2023-03-28T07:53:49.133Z,0.00
2023-03-28T07:54:49.099Z,4.57
2023-03-28T07:55:55.102Z,2.33
2023-03-28T07:56:49.125Z,0.00
2023-03-28T07:59:48.047Z,0.00
2023-03-28T08:00:49.044Z,0.00
2023-03-28T08:01:49.081Z,0.00
2023-03-28T08:02:49.214Z,0.00
2023-03-28T08:03:49.130Z,0.00
2023-03-28T08:04:49.031Z,1.86
2023-03-28T08:05:48.042Z,14.75
2023-03-28T08:06:49.009Z,24.34
2023-03-28T08:07:49.007Z,25.52
2023-03-28T08:08:49.003Z,25.39
2023-03-28T08:12:47.971Z,28.96
2023-03-28T08:13:48.973Z,27.59
2023-03-28T08:14:48.951Z,27.47
2023-03-28T08:16:47.948Z,26.42
2023-03-28T08:17:48.987Z,29.16
2023-03-28T08:18:56.980Z,25.00
2023-03-28T08:19:48.945Z,25.33
2023-03-28T08:22:47.904Z,28.17
2023-03-28T08:23:47.920Z,28.24
2023-03-28T08:24:48.896Z,29.16
2023-03-28T08:26:48.905Z,29.68
2023-03-28T08:28:47.857Z,28.28
2023-03-28T08:29:48.869Z,30.81
2023-03-28T08:30:48.868Z,25.59
2023-03-28T08:31:48.875Z,25.00
2023-03-28T08:35:47.869Z,26.31
2023-03-28T08:36:48.813Z,26.30
2023-03-28T08:37:48.800Z,26.96
2023-03-28T08:38:48.800Z,28.71
2023-03-28T08:42:47.768Z,29.80
2023-03-28T08:43:48.072Z,52.82
2023-03-28T08:44:48.756Z,78.57
2023-03-28T08:46:47.796Z,90.94
2023-03-28T08:47:48.764Z,96.38
2023-03-28T08:49:47.746Z,109.05
2023-03-28T08:50:48.712Z,104.94
2023-03-28T08:52:47.703Z,109.16
2023-03-28T08:53:47.707Z,109.57
2023-03-28T08:54:48.683Z,111.47
2023-03-28T08:56:47.727Z,52.03
2023-03-28T08:57:48.663Z,43.56
2023-03-28T08:58:48.086Z,42.96
2023-03-28T08:59:48.654Z,34.60
2023-03-28T09:00:48.660Z,36.98
2023-03-28T09:01:48.682Z,28.39
2023-03-28T09:04:47.682Z,30.53
2023-03-28T09:05:48.649Z,26.88
2023-03-28T09:06:47.611Z,27.40
2023-03-28T09:07:48.596Z,27.61
2023-03-28T09:08:48.638Z,25.70
2023-03-28T09:09:47.593Z,26.73
2023-03-28T09:11:47.594Z,27.99
2023-03-28T09:12:48.576Z,31.60
2023-03-28T09:13:47.555Z,30.31
2023-03-28T09:14:50.730Z,34.91
2023-03-28T09:15:48.545Z,30.89
2023-03-28T09:16:48.631Z,29.10
2023-03-28T09:19:49.030Z,29.46
2023-03-28T09:20:48.513Z,27.74
2023-03-28T09:21:48.556Z,29.56
2023-03-28T09:24:47.482Z,27.75
2023-03-28T09:25:48.497Z,28.14
2023-03-28T09:26:47.490Z,32.22
2023-03-28T09:30:47.449Z,43.02
2023-03-28T09:31:48.626Z,40.38
2023-03-28T09:32:47.504Z,45.58
2023-03-28T09:33:48.474Z,49.64
2023-03-28T09:35:47.458Z,51.48
2023-03-28T09:36:50.216Z,51.48
2023-03-28T09:37:47.440Z,51.85
2023-03-28T09:38:48.403Z,51.36
2023-03-28T09:39:47.408Z,53.35
2023-03-28T09:40:48.379Z,56.41
2023-03-28T09:42:47.365Z,51.54
2023-03-28T09:43:48.367Z,55.22
2023-03-28T09:44:54.826Z,57.92
2023-03-28T09:47:47.448Z,60.12
2023-03-28T09:48:48.518Z,51.11
2023-03-28T09:49:50.750Z,63.66
2023-03-28T09:50:48.312Z,58.01
2023-03-28T09:51:48.302Z,59.17
2023-03-28T09:52:48.304Z,66.08
2023-03-28T09:53:48.382Z,79.90
2023-03-28T09:55:57.893Z,109.17
2023-03-28T09:56:48.348Z,109.22
2023-03-28T09:57:48.261Z,110.27
2023-03-28T09:58:48.294Z,112.12
2023-03-28T09:59:47.288Z,119.90
2023-03-28T10:02:47.288Z,143.42
2023-03-28T10:03:48.275Z,143.92
2023-03-28T10:04:47.256Z,144.46
2023-03-28T10:05:48.226Z,150.26
2023-03-28T10:09:47.206Z,142.27
2023-03-28T10:10:48.185Z,141.68
2023-03-28T10:11:48.191Z,126.59
2023-03-28T10:14:47.269Z,200.21
2023-03-28T10:15:47.368Z,215.22
2023-03-28T10:16:48.370Z,221.84
2023-03-28T10:17:49.010Z,203.01
2023-03-28T10:18:48.483Z,192.73
2023-03-28T10:19:48.574Z,190.94
2023-03-28T10:20:48.608Z,185.61
2023-03-28T10:23:47.810Z,149.55
2023-03-28T10:24:47.866Z,153.58
2023-03-28T10:25:48.934Z,158.87
2023-03-28T10:26:48.975Z,164.73
2023-03-28T10:28:48.125Z,166.92
2023-03-28T10:29:48.179Z,164.49
2023-03-28T10:30:49.221Z,161.00
2023-03-28T10:31:49.288Z,163.56
2023-03-28T10:32:49.359Z,163.50
2023-03-28T10:33:49.396Z,168.99
2023-03-28T10:34:49.414Z,204.27
2023-03-28T10:35:49.505Z,240.86
2023-03-28T10:36:49.516Z,220.34
2023-03-28T10:37:49.559Z,199.11
2023-03-28T10:38:49.619Z,189.96
2023-03-28T10:41:48.774Z,154.62
2023-03-28T10:42:49.793Z,162.38
2023-03-28T10:43:49.852Z,169.78
2023-03-28T10:45:48.948Z,177.31
2023-03-28T10:46:50.030Z,180.08
2023-03-28T10:47:50.089Z,178.42
2023-03-28T10:48:50.066Z,178.21
2023-03-28T10:50:49.120Z,179.69
2023-03-28T10:51:50.156Z,178.65
2023-03-28T10:54:49.219Z,179.06
2023-03-28T10:55:50.242Z,179.78
2023-03-28T10:56:50.275Z,180.87
2023-03-28T10:57:50.296Z,179.01
2023-03-28T10:58:50.263Z,180.23
2023-03-28T10:59:50.271Z,179.76
2023-03-28T11:01:49.322Z,179.00
2023-03-28T11:02:50.376Z,181.11
2023-03-28T11:03:50.459Z,179.86
2023-03-28T11:04:50.355Z,179.34
2023-03-28T11:06:01.671Z,179.35
2023-03-28T11:06:50.356Z,179.39
2023-03-28T11:07:50.373Z,179.61
2023-03-28T11:10:49.355Z,179.91
2023-03-28T11:11:50.331Z,179.63
2023-03-28T11:15:49.351Z,180.42
2023-03-28T11:16:50.301Z,178.78
2023-03-28T11:18:49.300Z,179.77
2023-03-28T11:19:50.287Z,180.66
2023-03-28T11:23:49.264Z,177.72
2023-03-28T11:24:50.238Z,178.18
2023-03-28T11:25:50.256Z,179.23
2023-03-28T11:26:50.241Z,177.98
2023-03-28T11:27:50.229Z,179.76
2023-03-28T11:30:49.244Z,177.49
2023-03-28T11:31:50.273Z,178.68
2023-03-28T11:32:50.245Z,177.89
2023-03-28T11:33:50.191Z,179.12
2023-03-28T11:37:49.160Z,177.37
2023-03-28T11:38:49.160Z,177.44
2023-03-28T11:39:50.650Z,176.81
2023-03-28T11:40:50.178Z,177.63
2023-03-28T11:41:50.193Z,177.03
2023-03-28T11:45:52.549Z,176.13
2023-03-28T11:46:50.298Z,176.23
2023-03-28T11:47:50.273Z,176.39
2023-03-28T11:48:49.233Z,176.16
2023-03-28T11:49:50.239Z,175.34
2023-03-28T11:53:49.210Z,177.56
2023-03-28T11:54:49.203Z,176.57
2023-03-28T11:56:49.281Z,176.09
2023-03-28T11:57:50.185Z,175.74
2023-03-28T12:01:49.215Z,176.10
2023-03-28T12:02:49.274Z,175.71
2023-03-28T12:03:49.190Z,175.21
2023-03-28T12:04:50.139Z,173.67
2023-03-28T12:05:50.136Z,175.14
2023-03-28T12:09:49.114Z,175.79
2023-03-28T12:12:49.081Z,174.64
2023-03-28T12:13:58.401Z,176.67
2023-03-28T12:18:49.044Z,176.78
2023-03-28T12:19:50.022Z,175.70
2023-03-28T12:20:50.028Z,175.10
2023-03-28T12:21:50.019Z,174.46
2023-03-28T12:25:49.009Z,173.86
2023-03-28T12:26:49.031Z,174.62
2023-03-28T12:27:49.995Z,175.40
2023-03-28T12:30:49.019Z,171.66
2023-03-28T12:31:49.973Z,173.42
2023-03-28T12:34:48.930Z,172.82
2023-03-28T12:35:49.946Z,173.30
2023-03-28T12:36:49.926Z,175.04
2023-03-28T12:40:48.899Z,175.09
2023-03-28T12:41:49.888Z,172.98
2023-03-28T12:42:49.875Z,174.28
2023-03-28T12:43:49.885Z,172.93
2023-03-28T12:45:48.904Z,174.49
2023-03-28T12:48:48.863Z,174.12
2023-03-28T12:49:49.873Z,173.90
2023-03-28T12:51:48.833Z,175.38
2023-03-28T12:53:48.818Z,174.40
2023-03-28T12:54:49.817Z,173.76
2023-03-28T12:55:49.847Z,173.13
2023-03-28T12:56:49.988Z,173.92
2023-03-28T12:57:49.979Z,173.66
2023-03-28T12:58:49.953Z,173.39
2023-03-28T12:59:49.993Z,173.41
2023-03-28T13:00:50.018Z,174.04
2023-03-28T13:01:50.119Z,173.25
2023-03-28T13:02:50.143Z,173.21
2023-03-28T13:03:50.118Z,171.12
2023-03-28T13:04:50.183Z,172.35
2023-03-28T13:05:50.262Z,170.98
2023-03-28T13:07:49.314Z,175.24
2023-03-28T13:08:50.320Z,172.45
2023-03-28T13:09:50.363Z,171.68
2023-03-28T13:10:50.430Z,173.03
2023-03-28T13:11:50.447Z,172.93
2023-03-28T13:12:50.482Z,172.71
2023-03-28T13:13:50.544Z,172.81
2023-03-28T13:14:50.575Z,172.86
2023-03-28T13:15:50.655Z,173.46
2023-03-28T13:16:50.636Z,172.76
2023-03-28T13:17:50.705Z,172.42
2023-03-28T13:18:50.712Z,172.89
2023-03-28T13:19:50.754Z,171.97
2023-03-28T13:20:50.800Z,172.32
2023-03-28T13:21:50.831Z,172.38
2023-03-28T13:22:50.847Z,172.32
2023-03-28T13:24:49.913Z,171.95
2023-03-28T13:25:50.957Z,171.10
2023-03-28T13:29:50.115Z,172.32
2023-03-28T13:30:51.173Z,172.84
2023-03-28T13:31:51.192Z,172.49
2023-03-28T13:32:51.272Z,171.02
2023-03-28T13:33:51.283Z,172.05
2023-03-28T13:34:51.348Z,171.35
2023-03-28T13:35:51.401Z,172.45
2023-03-28T13:36:51.448Z,171.46
2023-03-28T13:37:51.497Z,172.91
2023-03-28T13:38:51.532Z,172.07
2023-03-28T13:39:51.575Z,171.70
2023-03-28T13:40:51.646Z,172.36
2023-03-28T13:45:50.893Z,171.59
2023-03-28T13:46:51.994Z,172.24
2023-03-28T13:47:59.736Z,170.04
2023-03-28T13:48:51.998Z,170.15
2023-03-28T13:50:50.976Z,170.32
2023-03-28T13:51:51.985Z,170.30
2023-03-28T13:52:51.960Z,171.50
2023-03-28T13:53:52.008Z,169.82
2023-03-28T13:57:50.932Z,169.59
2023-03-28T13:58:51.911Z,167.40
2023-03-28T14:03:50.896Z,170.43
2023-03-28T14:04:51.889Z,169.21
2023-03-28T14:05:51.886Z,169.83
2023-03-28T14:08:50.853Z,170.20
2023-03-28T14:09:51.881Z,169.23
2023-03-28T14:11:50.845Z,168.94
2023-03-28T14:12:51.822Z,169.14
2023-03-28T14:13:51.836Z,168.56
2023-03-28T14:19:51.091Z,168.24
2023-03-28T14:20:52.106Z,167.25
2023-03-28T14:21:51.171Z,168.26
2023-03-28T14:22:59.971Z,167.62
2023-03-28T14:27:51.184Z,168.07
2023-03-28T14:28:52.167Z,168.61
2023-03-28T14:29:52.173Z,168.02
2023-03-28T14:31:51.192Z,167.49
2023-03-28T14:33:51.136Z,167.21
2023-03-28T14:34:51.136Z,167.96
2023-03-28T14:35:52.156Z,166.82
2023-03-28T14:36:52.128Z,167.26
2023-03-28T14:37:51.134Z,168.00
2023-03-28T14:38:52.110Z,167.13
2023-03-28T14:40:51.091Z,167.89
2023-03-28T14:41:52.127Z,167.59
2023-03-28T14:44:51.074Z,167.99
2023-03-28T14:45:52.108Z,166.04
2023-03-28T14:49:51.210Z,166.51
2023-03-28T14:50:53.654Z,168.75
2023-03-28T14:51:52.373Z,166.66
2023-03-28T14:52:52.433Z,165.77
2023-03-28T14:53:52.491Z,167.69
2023-03-28T14:54:52.561Z,167.17
2023-03-28T14:57:51.795Z,168.23
2023-03-28T14:58:52.846Z,166.66
2023-03-28T14:59:52.846Z,166.68
2023-03-28T15:00:52.902Z,166.82
2023-03-28T15:01:53.020Z,166.81
2023-03-28T15:02:53.082Z,166.40
2023-03-28T15:03:53.196Z,167.08
2023-03-28T15:04:53.148Z,166.69
2023-03-28T15:05:53.208Z,165.87
2023-03-28T15:06:53.306Z,166.56
2023-03-28T15:07:53.331Z,166.98
2023-03-28T15:08:53.398Z,166.43
2023-03-28T15:10:52.569Z,166.77
2023-03-28T15:11:53.631Z,165.99
2023-03-28T15:12:52.662Z,166.66
2023-03-28T15:13:53.803Z,167.42
2023-03-28T15:17:53.019Z,167.69
2023-03-28T15:18:54.035Z,166.17
2023-03-28T15:19:54.107Z,166.45
2023-03-28T15:20:54.143Z,167.16
2023-03-28T15:21:54.200Z,166.07
2023-03-28T15:22:54.229Z,166.23
2023-03-28T15:31:03.873Z,165.91
2023-03-28T15:31:54.362Z,166.19
2023-03-28T15:32:54.435Z,166.43
2023-03-28T15:33:54.288Z,166.85
2023-03-28T15:34:54.281Z,166.75
2023-03-28T15:35:53.430Z,167.98
2023-03-28T15:36:54.263Z,165.38
2023-03-28T15:37:53.248Z,167.49
2023-03-28T15:38:54.263Z,165.87
2023-03-28T15:39:54.249Z,166.54
2023-03-28T15:40:53.246Z,167.31
2023-03-28T15:41:54.276Z,166.31
2023-03-28T15:42:54.226Z,165.47
2023-03-28T15:43:53.230Z,166.08
2023-03-28T15:44:54.206Z,165.65
2023-03-28T15:45:54.280Z,166.20
2023-03-28T15:46:54.285Z,165.93